createdAt,value
2023-05-13T00:02:20.334Z,100.00
2023-05-13T00:05:25.676Z,100.00
2023-05-13T00:08:31.134Z,100.00
2023-05-13T00:11:36.798Z,100.00
2023-05-13T00:14:42.530Z,100.00
2023-05-13T00:17:47.836Z,100.00
2023-05-13T00:20:53.398Z,100.00
2023-05-13T00:23:59.441Z,100.00
2023-05-13T00:27:04.986Z,100.00
2023-05-13T00:30:11.274Z,100.00
2023-05-13T00:33:16.756Z,100.00
2023-05-13T00:36:22.396Z,100.00
2023-05-13T00:39:29.378Z,100.00
2023-05-13T00:42:34.894Z,100.00
2023-05-13T00:45:41.379Z,100.00
2023-05-13T00:48:47.408Z,100.00
2023-05-13T00:51:55.498Z,100.00
2023-05-13T00:55:01.519Z,100.00
2023-05-13T00:58:06.951Z,100.00
2023-05-13T01:01:32.321Z,100.00
2023-05-13T01:04:45.682Z,100.00
2023-05-13T01:08:25.209Z,100.00
2023-05-13T01:11:42.115Z,100.00
2023-05-13T01:14:55.819Z,100.00
2023-05-13T01:18:11.505Z,100.00
2023-05-13T01:21:17.408Z,100.00
2023-05-13T01:24:23.425Z,100.00
2023-05-13T01:27:29.382Z,100.00
2023-05-13T01:30:36.922Z,100.00
2023-05-13T01:33:44.282Z,100.00
2023-05-13T01:36:51.392Z,100.00
2023-05-13T01:39:59.300Z,100.00
2023-05-13T01:43:05.210Z,100.00
2023-05-13T01:46:14.263Z,100.00
2023-05-13T01:49:20.064Z,100.00
2023-05-13T01:52:25.572Z,100.00
2023-05-13T01:55:31.765Z,100.00
2023-05-13T01:58:40.459Z,100.00
2023-05-13T02:01:46.345Z,100.00
2023-05-13T02:04:51.991Z,100.00
2023-05-13T02:07:57.746Z,100.00
2023-05-13T02:11:03.852Z,100.00
2023-05-13T02:14:09.259Z,100.00
2023-05-13T02:17:15.212Z,100.00
2023-05-13T02:20:21.707Z,100.00
2023-05-13T02:23:27.726Z,100.00
2023-05-13T02:26:34.346Z,100.00
2023-05-13T02:29:40.211Z,100.00
2023-05-13T02:32:47.764Z,100.00
2023-05-13T02:35:53.660Z,100.00
2023-05-13T02:38:59.362Z,100.00
2023-05-13T02:42:05.689Z,100.00
2023-05-13T02:45:12.411Z,100.00
2023-05-13T02:48:21.003Z,100.00
2023-05-13T02:51:26.673Z,100.00
2023-05-13T02:54:32.648Z,100.00
2023-05-13T02:57:38.356Z,100.00
2023-05-13T03:00:44.219Z,100.00
2023-05-13T03:03:50.720Z,100.00
2023-05-13T03:06:56.033Z,100.00
2023-05-13T03:10:01.696Z,100.00
2023-05-13T03:13:07.406Z,100.00
2023-05-13T03:16:13.544Z,100.00
2023-05-13T03:19:19.101Z,100.00
2023-05-13T03:22:24.395Z,100.00
2023-05-13T03:25:30.261Z,100.00
2023-05-13T03:28:37.751Z,100.00
2023-05-13T03:31:43.724Z,100.00
2023-05-13T03:34:49.331Z,100.00
2023-05-13T03:37:55.743Z,100.00
2023-05-13T03:41:01.462Z,100.00
2023-05-13T03:44:08.089Z,100.00
2023-05-13T03:47:13.712Z,100.00
2023-05-13T03:50:19.647Z,100.00
2023-05-13T03:53:25.275Z,100.00
2023-05-13T03:56:32.966Z,100.00
2023-05-13T03:59:40.231Z,100.00
2023-05-13T04:02:46.373Z,100.00
2023-05-13T04:05:52.592Z,100.00
2023-05-13T04:08:58.488Z,100.00
2023-05-13T04:12:04.260Z,100.00
2023-05-13T04:15:09.952Z,100.00
2023-05-13T04:18:15.284Z,100.00
2023-05-13T04:21:20.974Z,100.00
2023-05-13T04:24:27.029Z,100.00
2023-05-13T04:27:32.363Z,100.00
2023-05-13T04:30:45.630Z,100.00
2023-05-13T04:33:51.316Z,100.00
2023-05-13T04:36:57.094Z,100.00
2023-05-13T04:40:04.057Z,100.00
2023-05-13T04:43:09.974Z,100.00
2023-05-13T04:46:24.487Z,100.00
2023-05-13T04:49:30.775Z,100.00
2023-05-13T04:52:37.849Z,100.00
2023-05-13T04:55:43.657Z,100.00
2023-05-13T04:58:49.246Z,100.00
2023-05-13T05:01:55.241Z,100.00
2023-05-13T05:05:00.859Z,100.00
2023-05-13T05:08:06.820Z,100.00
2023-05-13T05:11:12.777Z,100.00
2023-05-13T05:14:18.297Z,100.00
2023-05-13T05:17:24.156Z,100.00
2023-05-13T05:20:29.594Z,100.00
2023-05-13T05:23:37.377Z,100.00
2023-05-13T05:26:42.910Z,100.00
2023-05-13T05:29:49.140Z,100.00
2023-05-13T05:32:54.552Z,100.00
2023-05-13T05:36:00.661Z,100.00
2023-05-13T05:39:06.502Z,100.00
2023-05-13T05:42:15.595Z,100.00
2023-05-13T05:45:21.325Z,100.00
2023-05-13T05:48:27.036Z,100.00
2023-05-13T05:51:33.286Z,100.00
2023-05-13T05:54:40.856Z,100.00
2023-05-13T05:57:46.130Z,100.00
2023-05-13T06:00:52.024Z,100.00
2023-05-13T06:03:57.089Z,100.00
2023-05-13T06:07:02.820Z,100.00
2023-05-13T06:10:09.025Z,100.00
2023-05-13T06:13:15.028Z,100.00
2023-05-13T06:16:20.952Z,100.00
2023-05-13T06:19:26.963Z,100.00
2023-05-13T06:22:32.982Z,100.00
2023-05-13T06:25:39.006Z,100.00
2023-05-13T06:28:45.521Z,100.00
2023-05-13T06:31:51.186Z,100.00
2023-05-13T06:34:56.821Z,100.00
2023-05-13T06:38:02.373Z,100.00
2023-05-13T06:41:08.050Z,100.00
2023-05-13T06:44:16.280Z,100.00
2023-05-13T06:47:24.415Z,100.00
2023-05-13T06:50:30.157Z,100.00
2023-05-13T06:53:35.943Z,100.00
2023-05-13T06:56:41.753Z,100.00
2023-05-13T06:59:47.646Z,100.00
2023-05-13T07:02:52.931Z,100.00
2023-05-13T07:05:58.326Z,100.00
2023-05-13T07:09:08.204Z,100.00
2023-05-13T07:12:14.681Z,100.00
2023-05-13T07:15:20.646Z,100.00
2023-05-13T07:18:26.520Z,100.00
2023-05-13T07:21:32.423Z,100.00
2023-05-13T07:24:37.748Z,100.00
2023-05-13T07:27:43.125Z,100.00
2023-05-13T07:30:48.773Z,100.00
2023-05-13T07:33:54.055Z,100.00
2023-05-13T07:36:59.289Z,100.00
2023-05-13T07:40:06.965Z,100.00
2023-05-13T07:43:14.209Z,100.00
2023-05-13T07:46:19.734Z,100.00
2023-05-13T07:49:25.106Z,100.00
2023-05-13T07:52:30.560Z,100.00
2023-05-13T07:55:35.810Z,100.00
2023-05-13T07:58:41.178Z,100.00
2023-05-13T08:01:46.801Z,100.00
2023-05-13T08:04:52.215Z,100.00
2023-05-13T08:07:58.010Z,100.00
2023-05-13T08:11:03.544Z,100.00
2023-05-13T08:14:08.648Z,100.00
2023-05-13T08:17:14.250Z,100.00
2023-05-13T08:20:20.277Z,100.00
2023-05-13T08:23:43.539Z,100.00
2023-05-13T08:26:51.316Z,100.00
2023-05-13T08:29:56.445Z,100.00
2023-05-13T08:33:02.117Z,100.00
2023-05-13T08:36:08.566Z,100.00
2023-05-13T08:42:40.193Z,100.00
2023-05-13T08:45:48.357Z,100.00
2023-05-13T08:48:55.359Z,100.00
2023-05-13T08:52:01.007Z,100.00
2023-05-13T08:55:09.091Z,100.00
2023-05-13T08:58:14.226Z,100.00
2023-05-13T09:01:19.633Z,100.00
2023-05-13T09:04:26.253Z,100.00
2023-05-13T09:07:31.990Z,100.00
2023-05-13T09:10:37.764Z,100.00
2023-05-13T09:13:45.391Z,100.00
2023-05-13T09:16:50.829Z,100.00
2023-05-13T09:19:57.005Z,100.00
2023-05-13T09:23:10.800Z,100.00
2023-05-13T09:26:30.035Z,100.00
2023-05-13T09:29:35.230Z,100.00
2023-05-13T09:32:42.938Z,100.00
2023-05-13T09:35:53.698Z,100.00
2023-05-13T09:39:00.315Z,100.00
2023-05-13T09:42:06.635Z,100.00
2023-05-13T09:45:14.222Z,100.00
2023-05-13T09:48:23.940Z,100.00
2023-05-13T09:51:31.306Z,100.00
2023-05-13T09:54:36.873Z,100.00
2023-05-13T09:57:42.556Z,100.00
2023-05-13T10:00:48.795Z,100.00
2023-05-13T10:03:57.065Z,100.00
2023-05-13T10:07:05.323Z,100.00
2023-05-13T10:10:11.035Z,100.00
2023-05-13T10:13:20.212Z,100.00
2023-05-13T10:16:26.205Z,100.00
2023-05-13T10:19:32.492Z,100.00
2023-05-13T10:22:39.455Z,100.00
2023-05-13T10:25:46.536Z,100.00
2023-05-13T10:28:54.095Z,100.00
2023-05-13T10:32:00.704Z,100.00
2023-05-13T10:35:13.760Z,100.00
2023-05-13T10:38:48.413Z,100.00
2023-05-13T10:42:44.516Z,100.00
2023-05-13T10:46:01.468Z,100.00
2023-05-13T10:49:16.438Z,100.00
2023-05-13T10:52:22.375Z,93.69
2023-05-13T10:55:28.413Z,93.90
2023-05-13T10:58:38.532Z,100.00
2023-05-13T11:01:46.129Z,100.00
2023-05-13T11:05:00.530Z,100.00
2023-05-13T11:08:05.916Z,95.59
2023-05-13T11:11:22.981Z,93.69
2023-05-13T11:14:31.284Z,97.72
2023-05-13T11:17:37.808Z,99.95
2023-05-13T11:20:52.481Z,100.00
2023-05-13T11:24:05.836Z,100.00
2023-05-13T11:27:21.566Z,100.00
2023-05-13T11:30:28.024Z,96.27
2023-05-13T11:34:11.955Z,88.28
2023-05-13T11:37:18.287Z,86.04
2023-05-13T11:40:26.004Z,86.56
2023-05-13T11:43:34.106Z,83.54
2023-05-13T11:46:53.396Z,77.55
2023-05-13T11:49:59.378Z,78.79
2023-05-13T11:53:05.340Z,75.37
2023-05-13T11:56:11.845Z,81.77
2023-05-13T11:59:17.440Z,75.87
2023-05-13T12:02:35.615Z,77.38
2023-05-13T12:05:41.621Z,75.71
2023-05-13T12:08:47.467Z,74.92
2023-05-13T12:11:54.067Z,73.28
2023-05-13T12:15:00.915Z,71.34
2023-05-13T12:18:07.051Z,70.73
2023-05-13T12:21:17.763Z,71.81
2023-05-13T12:24:23.146Z,71.19
2023-05-13T12:27:29.027Z,67.42
2023-05-13T12:30:35.580Z,65.25
2023-05-13T12:33:43.047Z,68.87
2023-05-13T12:36:48.383Z,66.76
2023-05-13T12:40:10.596Z,64.48
2023-05-13T12:43:20.473Z,61.87
2023-05-13T12:46:26.292Z,63.72
2023-05-13T12:49:32.036Z,62.48
2023-05-13T12:52:37.649Z,69.35
2023-05-13T12:55:43.910Z,68.08
2023-05-13T12:58:51.030Z,67.95
2023-05-13T13:01:56.481Z,65.06
2023-05-13T13:05:01.929Z,65.32
2023-05-13T13:08:07.188Z,62.13
2023-05-13T13:11:18.886Z,61.30
2023-05-13T13:14:26.395Z,64.80
2023-05-13T13:17:31.708Z,68.95
2023-05-13T13:20:39.007Z,69.36
2023-05-13T13:23:44.629Z,68.85
2023-05-13T13:26:50.467Z,65.71
2023-05-13T13:29:56.121Z,71.72
2023-05-13T13:33:02.087Z,77.91
2023-05-13T13:36:07.975Z,82.32
2023-05-13T13:39:13.291Z,83.59
2023-05-13T13:42:18.563Z,89.74
2023-05-13T13:45:24.463Z,96.71
2023-05-13T13:48:29.328Z,99.61
2023-05-13T13:51:34.501Z,100.00
2023-05-13T13:54:39.833Z,100.00
2023-05-13T13:57:46.055Z,100.00
2023-05-13T14:00:52.881Z,100.00
2023-05-13T14:04:16.207Z,100.00
2023-05-13T14:07:21.518Z,100.00
2023-05-13T14:10:26.897Z,100.00
2023-05-13T14:13:32.432Z,100.00
2023-05-13T14:16:37.470Z,100.00
2023-05-13T14:19:42.755Z,100.00
2023-05-13T14:22:48.470Z,100.00
2023-05-13T14:25:54.186Z,88.40
2023-05-13T14:28:59.345Z,81.37
2023-05-13T14:32:04.855Z,84.01
2023-05-13T14:35:10.465Z,87.73
2023-05-13T14:38:16.075Z,85.14
2023-05-13T14:41:21.887Z,80.96
2023-05-13T14:44:26.996Z,76.88
2023-05-13T14:47:32.613Z,95.92
2023-05-13T14:50:39.414Z,99.04
2023-05-13T14:53:47.081Z,83.54
2023-05-13T14:56:53.372Z,78.88
2023-05-13T15:00:00.047Z,74.49
2023-05-13T15:03:06.552Z,73.17
2023-05-13T15:06:12.092Z,86.67
2023-05-13T15:09:19.408Z,97.34
2023-05-13T15:12:24.932Z,100.00
2023-05-13T15:15:30.939Z,100.00
2023-05-13T15:18:36.556Z,100.00
2023-05-13T15:21:41.996Z,100.00
2023-05-13T15:24:47.868Z,100.00
2023-05-13T15:27:53.372Z,100.00
2023-05-13T15:30:59.173Z,100.00
2023-05-13T15:34:04.969Z,100.00
2023-05-13T15:37:10.794Z,100.00
2023-05-13T15:40:16.467Z,100.00
2023-05-13T15:43:21.993Z,100.00
2023-05-13T15:46:27.368Z,100.00
2023-05-13T15:49:36.054Z,100.00
2023-05-13T15:52:41.538Z,100.00
2023-05-13T15:55:47.230Z,100.00
2023-05-13T15:58:53.207Z,100.00
2023-05-13T16:01:58.567Z,100.00
2023-05-13T16:05:04.191Z,100.00
2023-05-13T16:08:09.731Z,100.00
2023-05-13T16:11:15.350Z,100.00
2023-05-13T16:14:20.599Z,100.00
2023-05-13T16:17:26.341Z,100.00
2023-05-13T16:20:31.612Z,100.00
2023-05-13T16:23:37.110Z,100.00
2023-05-13T16:26:42.363Z,100.00
2023-05-13T16:29:47.854Z,100.00
2023-05-13T16:32:54.692Z,100.00
2023-05-13T16:36:00.164Z,100.00
2023-05-13T16:39:05.819Z,100.00
2023-05-13T16:42:11.581Z,100.00
2023-05-13T16:45:16.940Z,100.00
2023-05-13T16:48:22.581Z,100.00
2023-05-13T16:51:28.358Z,100.00
2023-05-13T16:54:34.705Z,100.00
2023-05-13T16:57:40.241Z,100.00
2023-05-13T17:00:45.781Z,100.00
2023-05-13T17:03:51.273Z,100.00
2023-05-13T17:06:58.902Z,100.00
2023-05-13T17:10:04.945Z,100.00
2023-05-13T17:13:10.878Z,100.00
2023-05-13T17:16:16.672Z,100.00
2023-05-13T17:19:22.110Z,100.00
2023-05-13T17:22:28.072Z,100.00
2023-05-13T17:25:33.693Z,100.00
2023-05-13T17:28:40.572Z,100.00
2023-05-13T17:31:46.021Z,100.00
2023-05-13T17:34:51.591Z,100.00
2023-05-13T17:37:57.104Z,100.00
2023-05-13T17:41:02.312Z,100.00
2023-05-13T17:44:07.725Z,100.00
2023-05-13T17:47:13.296Z,100.00
2023-05-13T17:50:19.288Z,100.00
2023-05-13T17:53:25.168Z,100.00
2023-05-13T17:56:31.446Z,100.00
2023-05-13T17:59:37.748Z,100.00
2023-05-13T18:02:43.397Z,100.00
2023-05-13T18:05:49.312Z,100.00
2023-05-13T18:08:54.627Z,100.00
2023-05-13T18:12:00.079Z,100.00
2023-05-13T18:15:06.837Z,100.00
2023-05-13T18:18:12.167Z,100.00
2023-05-13T18:21:18.019Z,100.00
2023-05-13T18:24:23.566Z,100.00
2023-05-13T18:27:28.831Z,100.00
2023-05-13T18:30:34.433Z,100.00
2023-05-13T18:33:39.674Z,100.00
2023-05-13T18:36:46.142Z,100.00
2023-05-13T18:39:51.947Z,100.00
2023-05-13T18:42:57.666Z,100.00
2023-05-13T18:46:03.209Z,100.00
2023-05-13T18:49:08.788Z,100.00
2023-05-13T18:52:14.328Z,100.00
2023-05-13T18:55:20.244Z,100.00
2023-05-13T18:58:27.377Z,100.00
2023-05-13T19:01:33.193Z,100.00
2023-05-13T19:04:38.684Z,100.00
2023-05-13T19:07:44.753Z,100.00
2023-05-13T19:10:50.241Z,100.00
2023-05-13T19:13:55.905Z,100.00
2023-05-13T19:17:01.916Z,100.00
2023-05-13T19:20:09.044Z,100.00
2023-05-13T19:23:14.852Z,100.00
2023-05-13T19:26:20.153Z,100.00
2023-05-13T19:29:26.312Z,100.00
2023-05-13T19:32:31.985Z,100.00
2023-05-13T19:35:37.645Z,100.00
2023-05-13T19:38:43.329Z,100.00
2023-05-13T19:41:48.985Z,100.00
2023-05-13T19:44:54.148Z,100.00
2023-05-13T19:47:59.621Z,100.00
2023-05-13T19:51:05.268Z,100.00
2023-05-13T19:54:12.251Z,100.00
2023-05-13T19:57:17.637Z,100.00
2023-05-13T20:00:24.555Z,100.00
2023-05-13T20:03:31.085Z,100.00
2023-05-13T20:06:37.064Z,100.00
2023-05-13T20:09:42.348Z,100.00
2023-05-13T20:12:47.873Z,100.00
2023-05-13T20:15:53.174Z,100.00
2023-05-13T20:18:58.427Z,100.00
2023-05-13T20:22:04.411Z,100.00
2023-05-13T20:25:10.413Z,100.00
2023-05-13T20:28:16.000Z,100.00
2023-05-13T20:31:21.785Z,100.00
2023-05-13T20:34:27.216Z,100.00
2023-05-13T20:37:32.946Z,100.00
2023-05-13T20:40:38.932Z,100.00
2023-05-13T20:43:44.396Z,100.00
2023-05-13T20:46:50.367Z,100.00
2023-05-13T20:49:55.855Z,100.00
2023-05-13T20:53:01.669Z,100.00
2023-05-13T20:56:07.214Z,100.00
2023-05-13T20:59:12.786Z,100.00
2023-05-13T21:02:18.824Z,100.00
2023-05-13T21:05:24.692Z,100.00
2023-05-13T21:08:30.458Z,100.00
2023-05-13T21:11:36.741Z,100.00
2023-05-13T21:14:42.077Z,100.00
2023-05-13T21:17:48.205Z,100.00
2023-05-13T21:20:53.374Z,100.00
2023-05-13T21:23:58.693Z,100.00
2023-05-13T21:27:03.838Z,100.00
2023-05-13T21:30:10.422Z,100.00
2023-05-13T21:33:17.204Z,100.00
2023-05-13T21:36:23.018Z,100.00
2023-05-13T21:39:28.715Z,100.00
2023-05-13T21:42:34.563Z,100.00
2023-05-13T21:45:40.421Z,100.00
2023-05-13T21:48:47.025Z,100.00
2023-05-13T21:51:52.866Z,100.00
2023-05-13T21:54:58.420Z,100.00
2023-05-13T21:58:03.746Z,100.00
2023-05-13T22:01:09.762Z,100.00
2023-05-13T22:04:15.292Z,100.00
2023-05-13T22:07:21.178Z,100.00
2023-05-13T22:10:26.821Z,100.00
2023-05-13T22:13:31.927Z,100.00
2023-05-13T22:16:37.415Z,100.00
2023-05-13T22:19:42.893Z,100.00
2023-05-13T22:22:48.030Z,100.00
2023-05-13T22:25:53.811Z,100.00
2023-05-13T22:28:59.243Z,100.00
2023-05-13T22:32:04.825Z,100.00
2023-05-13T22:35:10.825Z,100.00
2023-05-13T22:38:16.118Z,100.00
2023-05-13T22:41:23.914Z,100.00
2023-05-13T22:44:29.246Z,100.00
2023-05-13T22:47:37.304Z,100.00
2023-05-13T22:50:42.607Z,100.00
2023-05-13T22:53:47.923Z,100.00
2023-05-13T22:56:53.186Z,100.00
2023-05-13T22:59:58.730Z,100.00
2023-05-13T23:03:04.195Z,100.00
2023-05-13T23:06:11.460Z,100.00
2023-05-13T23:09:17.170Z,100.00
2023-05-13T23:12:22.827Z,100.00
2023-05-13T23:15:28.284Z,100.00
2023-05-13T23:18:34.519Z,100.00
2023-05-13T23:21:39.770Z,100.00
2023-05-13T23:24:45.460Z,100.00
2023-05-13T23:27:51.523Z,100.00
2023-05-13T23:30:57.096Z,100.00
2023-05-13T23:34:03.011Z,100.00
2023-05-13T23:37:08.331Z,100.00
2023-05-13T23:40:14.061Z,100.00
2023-05-13T23:43:18.991Z,100.00
2023-05-13T23:46:24.333Z,100.00
2023-05-13T23:49:29.627Z,100.00
2023-05-13T23:52:35.058Z,100.00
2023-05-13T23:55:40.809Z,100.00
2023-05-13T23:58:46.138Z,100.00
